Terminal Aerodrome Forecast
Issued by NWS

Home | Current Version | Previous Version | Text Only | Print | Product List | Glossary On
Versions: 1 2 3 4 5 6 7 8 9 10 11 12 13
701
FTUS45 KTFX 042116 AAA
TAFCTB
TAF AMD
KCTB 042116Z 0421/0518 23010KT P6SM SCT200
      TEMPO 0421/0424 25010G20KT
     FM050500 28010KT P6SM BKN120
     FM051300 34015KT P6SM SCT040 BKN120=

USA.gov is the U.S. government's official web portal to all federal, state and local government web resources and services.